Messwerte Balzers

Temperatur

Temperatur
°C
1500728400 15.00 15.00 27.7
1500732000 16.00 16.00 27.8
1500735600 17.00 17.00 27.1
1500739200 18.00 18.00 27.0
1500742800 19.00 19.00 25.8
1500746400 20.00 20.00 24.6
1500750000 21.00 21.00 21.4
1500753600 22.00 22.00 20.3
1500757200 23.00 23.00 19.6
1500760800 0.00 0.00 20.7
1500764400 1.00 1.00 20.3
1500768000 2.00 2.00 19.0
1500771600 3.00 3.00 18.2
1500775200 4.00 4.00 17.6
1500778800 5.00 5.00 16.9
1500782400 6.00 6.00 16.9
1500786000 7.00 7.00 17.7
1500789600 8.00 8.00 17.8
1500793200 9.00 9.00 18.9
1500796800 10.00 10.00 20.4
1500800400 11.00 11.00 21.0
1500804000 12.00 12.00
1500807600 13.00 13.00 20.1
1500811200 14.00 14.00 20.2

Wir danken unserem Partner: PWS Balzers

Aktuellste Messwerte

Temperatur
20.2 °C
Feuchtigkeit
79 %
Wind
12 km/hWindrichtung: Nordwest
Böen
19 km/h
Luftdruck
1017.0 hPa
Globalstrahlung
352 W/m²
Messzeit: 23. Juli 2017, 14.00Datenquelle: MeteoNews Partner, PWS Balzers

Webcams

Weitere Messstationen in der Nähe

Messstation Temperatur Entfernung
Bad Ragaz 19.4 °C 3 km
Vaduz 20.2 °C 8 km
Schiers 20.7 °C 17 km
Tannenboden/Flumserberge 12.7 °C 17 km
Unterterzen 20.2 °C 19 km
Maschgenkamm/Flumserberge 9.7 °C 19 km
Chur 22.5 °C 21 km

Niederschlag

Niederschlagsmenge
mm
1500728400 15.00 14.00 - 15.00
1500732000 16.00 15.00 - 16.00
1500735600 17.00 16.00 - 17.00
1500739200 18.00 17.00 - 18.00
1500742800 19.00 18.00 - 19.00
1500746400 20.00 19.00 - 20.00
1500750000 21.00 20.00 - 21.00
1500753600 22.00 21.00 - 22.00
1500757200 23.00 22.00 - 23.00 0.0
1500760800 0.00 23.00 - 0.00
1500764400 1.00 0.00 - 1.00
1500768000 2.00 1.00 - 2.00
1500771600 3.00 2.00 - 3.00
1500775200 4.00 3.00 - 4.00
1500778800 5.00 4.00 - 5.00
1500782400 6.00 5.00 - 6.00
1500786000 7.00 6.00 - 7.00
1500789600 8.00 7.00 - 8.00
1500793200 9.00 8.00 - 9.00
1500796800 10.00 9.00 - 10.00
1500800400 11.00 10.00 - 11.00
1500804000 12.00 11.00 - 12.00
1500807600 13.00 12.00 - 13.00
1500811200 14.00 13.00 - 14.00

Wind

Windrichtung Böen Mittelwind
° km/h km/h
1500728400 15.00 14.00 - 15.00 270° 21 10
1500732000 16.00 15.00 - 16.00 280° 21 10
1500735600 17.00 16.00 - 17.00 10° 12 7
1500739200 18.00 17.00 - 18.00 20° 19 7
1500742800 19.00 18.00 - 19.00 320° 6 2
1500746400 20.00 19.00 - 20.00 320° 8 3
1500750000 21.00 20.00 - 21.00 180° 10 7
1500753600 22.00 21.00 - 22.00 170° 6 4
1500757200 23.00 22.00 - 23.00 230° 12 6
1500760800 0.00 23.00 - 0.00 140° 19 11
1500764400 1.00 0.00 - 1.00 130° 27 16
1500768000 2.00 1.00 - 2.00 250° 6 3
1500771600 3.00 2.00 - 3.00 10° 4 1
1500775200 4.00 3.00 - 4.00 50° 2 0
1500778800 5.00 4.00 - 5.00 180° 10 5
1500782400 6.00 5.00 - 6.00 200° 6 2
1500786000 7.00 6.00 - 7.00 180° 14 6
1500789600 8.00 7.00 - 8.00 290° 8 4
1500793200 9.00 8.00 - 9.00 240° 4 2
1500796800 10.00 9.00 - 10.00 240° 2 1
1500800400 11.00 10.00 - 11.00 10° 12 5
1500804000 12.00 11.00 - 12.00
1500807600 13.00 12.00 - 13.00 360° 23 12
1500811200 14.00 13.00 - 14.00 330° 19 12

Ihre Wetterstation

Fehlt Ihre Wetterstation auf unserem Portal?

Schreiben Sie an network@meteonews.ch

Klima

Wann ist es am wärmsten? Wann regnet es am wenigsten? Unsere Klimadaten geben Auskunft.